createdAt,value
2019-06-20T00:01:07.203Z,9.15
2019-06-20T00:03:36.284Z,10.10
2019-06-20T00:06:05.061Z,9.65
2019-06-20T00:08:35.666Z,11.15
2019-06-20T00:11:04.379Z,11.57
2019-06-20T00:13:42.257Z,12.13
2019-06-20T00:16:10.961Z,12.95
2019-06-20T00:18:39.595Z,13.03
2019-06-20T00:21:08.303Z,13.45
2019-06-20T00:23:42.985Z,13.83
2019-06-20T00:26:11.617Z,16.25
2019-06-20T00:28:40.244Z,15.63
2019-06-20T00:31:08.971Z,16.37
2019-06-20T00:33:37.583Z,16.93
2019-06-20T00:36:06.352Z,19.30
2019-06-20T00:38:50.089Z,18.12
2019-06-20T00:41:18.906Z,18.25
2019-06-20T00:43:49.508Z,19.92
2019-06-20T00:46:18.131Z,20.52
2019-06-20T00:48:46.833Z,19.67
2019-06-20T00:51:15.544Z,21.52
2019-06-20T00:53:44.165Z,20.35
2019-06-20T00:56:12.849Z,20.88
2019-06-20T00:58:53.415Z,23.00
2019-06-20T01:01:22.053Z,22.17
2019-06-20T01:03:50.748Z,22.55
2019-06-20T01:06:19.389Z,23.50
2019-06-20T01:09:03.487Z,22.48
2019-06-20T01:11:32.122Z,25.12
2019-06-20T01:14:00.730Z,24.82
2019-06-20T01:17:02.901Z,23.73
2019-06-20T01:19:31.576Z,23.90
2019-06-20T01:22:00.222Z,25.65
2019-06-20T01:24:29.055Z,24.75
2019-06-20T01:26:57.706Z,23.02
2019-06-20T01:29:26.298Z,24.75
2019-06-20T01:31:58.020Z,26.07
2019-06-20T01:34:26.722Z,24.98
2019-06-20T01:36:55.486Z,26.25
2019-06-20T01:39:32.612Z,25.75
2019-06-20T01:42:01.439Z,27.93
2019-06-20T01:44:51.293Z,27.45
2019-06-20T01:47:19.932Z,26.33
2019-06-20T01:49:48.689Z,26.15
2019-06-20T01:52:25.499Z,27.45
2019-06-20T01:54:54.136Z,28.77
2019-06-20T01:57:22.843Z,29.95
2019-06-20T01:59:51.491Z,28.70
2019-06-20T02:02:20.165Z,30.62
2019-06-20T02:04:54.110Z,33.85
2019-06-20T02:07:22.726Z,33.28
2019-06-20T02:09:51.374Z,31.12
2019-06-20T02:12:20.081Z,30.48
2019-06-20T02:14:48.722Z,31.75
2019-06-20T02:17:20.602Z,31.15
2019-06-20T02:19:49.398Z,31.50
2019-06-20T02:22:17.998Z,33.02
2019-06-20T02:24:52.769Z,32.50
2019-06-20T02:27:22.133Z,32.03
2019-06-20T02:29:50.952Z,31.70
2019-06-20T02:32:19.565Z,31.62
2019-06-20T02:34:48.253Z,32.67
2019-06-20T02:37:16.974Z,32.25
2019-06-20T02:39:45.622Z,33.73
2019-06-20T02:42:14.497Z,32.78
2019-06-20T02:44:49.044Z,35.60
2019-06-20T02:47:24.935Z,35.20
2019-06-20T02:49:53.745Z,36.20
2019-06-20T02:52:23.446Z,34.48
2019-06-20T02:54:52.124Z,36.33
2019-06-20T02:57:20.737Z,36.83
2019-06-20T02:59:52.424Z,36.55
2019-06-20T03:02:21.026Z,36.17
2019-06-20T03:05:01.672Z,35.38
2019-06-20T03:07:30.281Z,35.20
2019-06-20T03:09:58.918Z,35.90
2019-06-20T03:12:27.607Z,38.00
2019-06-20T03:14:56.237Z,40.03
2019-06-20T03:17:25.364Z,38.33
2019-06-20T03:19:53.995Z,39.92
2019-06-20T03:22:22.610Z,37.83
2019-06-20T03:24:51.264Z,36.85
2019-06-20T03:27:19.951Z,37.03
2019-06-20T03:29:48.689Z,39.48
2019-06-20T03:32:17.445Z,38.40
2019-06-20T03:34:46.084Z,39.73
2019-06-20T03:37:20.891Z,39.10
2019-06-20T03:39:49.601Z,41.55
2019-06-20T03:42:18.234Z,40.78
2019-06-20T03:45:02.078Z,44.58
2019-06-20T03:47:26.654Z,43.73
2019-06-20T03:49:55.282Z,39.70
2019-06-20T03:52:25.976Z,41.48
2019-06-20T03:54:54.612Z,39.88
2019-06-20T03:57:23.227Z,42.43
2019-06-20T03:59:52.052Z,40.80
2019-06-20T04:02:20.730Z,41.30
2019-06-20T04:04:49.340Z,39.65
2019-06-20T04:07:17.981Z,41.60
2019-06-20T04:09:46.593Z,39.80
2019-06-20T04:12:15.229Z,39.88
2019-06-20T04:14:43.851Z,40.33
2019-06-20T04:17:12.499Z,39.10
2019-06-20T04:19:41.188Z,40.10
2019-06-20T04:22:09.837Z,44.80
2019-06-20T04:24:39.986Z,36.03
2019-06-20T04:27:08.749Z,35.70
2019-06-20T04:29:37.370Z,34.30
2019-06-20T04:32:06.386Z,34.23
2019-06-20T04:34:35.251Z,35.85
2019-06-20T04:37:03.888Z,35.13
2019-06-20T04:39:35.538Z,36.53
2019-06-20T04:42:04.139Z,36.50
2019-06-20T04:44:32.807Z,37.03
2019-06-20T04:47:03.050Z,37.67
2019-06-20T04:49:31.814Z,37.50
2019-06-20T04:52:00.406Z,36.05
2019-06-20T04:54:29.020Z,35.52
2019-06-20T04:56:57.816Z,34.85
2019-06-20T04:59:26.423Z,34.23
2019-06-20T05:01:55.107Z,36.88
2019-06-20T05:04:24.839Z,33.63
2019-06-20T05:07:02.469Z,36.85
2019-06-20T05:09:31.107Z,35.83
2019-06-20T05:11:59.887Z,37.10
2019-06-20T05:14:28.648Z,37.58
2019-06-20T05:16:57.244Z,37.65
2019-06-20T05:19:25.909Z,36.10
2019-06-20T05:21:54.580Z,37.20
2019-06-20T05:24:25.555Z,35.70
2019-06-20T05:26:54.521Z,36.65
2019-06-20T05:29:23.156Z,37.17
2019-06-20T05:31:51.953Z,35.63
2019-06-20T05:34:20.657Z,36.55
2019-06-20T05:36:49.661Z,33.40
2019-06-20T05:39:18.450Z,35.25
2019-06-20T05:41:47.063Z,34.30
2019-06-20T05:44:15.669Z,35.45
2019-06-20T05:46:44.420Z,33.63
2019-06-20T05:49:13.020Z,33.45
2019-06-20T05:51:42.548Z,32.05
2019-06-20T05:54:11.209Z,35.48
2019-06-20T05:56:39.893Z,33.15
2019-06-20T05:59:09.493Z,31.48
2019-06-20T06:01:38.195Z,31.12
2019-06-20T06:04:07.843Z,32.33
2019-06-20T06:06:36.474Z,31.30
2019-06-20T06:09:07.265Z,30.60
2019-06-20T06:11:35.899Z,32.25
2019-06-20T06:14:04.658Z,33.00
2019-06-20T06:16:33.268Z,32.13
2019-06-20T06:19:01.894Z,31.95
2019-06-20T06:21:30.496Z,32.20
2019-06-20T06:24:44.780Z,33.63
2019-06-20T06:27:13.398Z,30.30
2019-06-20T06:29:42.034Z,32.15
2019-06-20T06:32:10.815Z,31.42
2019-06-20T06:34:39.500Z,31.37
2019-06-20T06:37:08.130Z,29.80
2019-06-20T06:39:36.849Z,30.48
2019-06-20T06:42:05.633Z,32.28
2019-06-20T06:44:34.462Z,31.90
2019-06-20T06:47:03.081Z,31.60
2019-06-20T06:49:31.830Z,31.60
2019-06-20T06:52:00.580Z,32.48
2019-06-20T06:54:29.175Z,31.10
2019-06-20T06:56:57.876Z,31.50
2019-06-20T06:59:26.504Z,31.27
2019-06-20T07:01:55.287Z,29.75
2019-06-20T07:04:23.994Z,29.98
2019-06-20T07:06:52.637Z,31.25
2019-06-20T07:09:21.238Z,30.82
2019-06-20T07:11:50.151Z,29.70
2019-06-20T07:14:18.829Z,29.00
2019-06-20T07:16:59.675Z,28.15
2019-06-20T07:19:17.801Z,28.40
2019-06-20T07:21:46.613Z,25.62
2019-06-20T07:24:15.224Z,25.48
2019-06-20T07:26:43.936Z,24.67
2019-06-20T07:29:12.581Z,24.18
2019-06-20T07:31:41.358Z,23.87
2019-06-20T07:34:09.965Z,22.95
2019-06-20T07:36:38.585Z,23.52
2019-06-20T07:39:19.397Z,22.40
2019-06-20T07:41:48.013Z,23.18
2019-06-20T07:44:16.632Z,22.17
2019-06-20T07:46:45.350Z,22.37
2019-06-20T07:49:13.952Z,22.58
2019-06-20T07:51:42.632Z,22.37
2019-06-20T07:54:11.270Z,20.95
2019-06-20T07:56:39.987Z,21.20
2019-06-20T07:59:08.694Z,21.48
2019-06-20T08:01:37.397Z,20.48
2019-06-20T08:04:06.145Z,22.15
2019-06-20T08:06:34.854Z,22.10
2019-06-20T08:09:04.590Z,20.08
2019-06-20T08:11:36.338Z,21.75
2019-06-20T08:14:05.394Z,22.60
2019-06-20T08:16:34.140Z,20.25
2019-06-20T08:19:02.911Z,21.95
2019-06-20T08:21:34.810Z,22.13
2019-06-20T08:24:03.565Z,21.48
2019-06-20T08:26:32.250Z,23.75
2019-06-20T08:29:15.837Z,21.50
2019-06-20T08:31:31.978Z,20.30
2019-06-20T08:34:15.858Z,20.12
2019-06-20T08:36:44.478Z,18.00
2019-06-20T08:39:13.128Z,17.95
2019-06-20T08:41:41.870Z,17.00
2019-06-20T08:44:11.975Z,16.17
2019-06-20T08:46:40.595Z,16.05
2019-06-20T08:49:09.320Z,15.38
2019-06-20T08:51:38.076Z,14.23
2019-06-20T08:54:06.856Z,13.08
2019-06-20T08:56:35.571Z,13.48
2019-06-20T08:59:04.845Z,13.45
2019-06-20T09:01:33.716Z,12.80
2019-06-20T09:06:30.956Z,14.98
2019-06-20T09:09:00.079Z,13.38
2019-06-20T09:11:28.776Z,14.15
2019-06-20T09:13:57.510Z,13.58
2019-06-20T09:16:26.100Z,15.10
2019-06-20T09:18:55.325Z,15.72
2019-06-20T09:21:25.152Z,17.07
2019-06-20T09:23:54.172Z,16.80
2019-06-20T09:26:24.026Z,16.70
2019-06-20T09:28:54.032Z,16.30
2019-06-20T09:31:23.289Z,15.90
2019-06-20T09:33:53.542Z,15.95
2019-06-20T09:36:22.289Z,16.02
2019-06-20T09:38:52.073Z,16.20
2019-06-20T09:41:21.289Z,16.45
2019-06-20T09:43:50.078Z,15.48
2019-06-20T09:46:19.975Z,16.05
2019-06-20T09:48:49.317Z,16.90
2019-06-20T09:51:22.025Z,15.55
2019-06-20T09:53:51.851Z,15.03
2019-06-20T09:56:20.668Z,16.30
2019-06-20T09:58:49.625Z,17.35
2019-06-20T10:01:19.452Z,17.62
2019-06-20T10:03:49.009Z,17.70
2019-06-20T10:06:18.534Z,15.98
2019-06-20T10:08:48.294Z,17.25
2019-06-20T10:11:32.241Z,17.32
2019-06-20T10:14:00.866Z,17.20
2019-06-20T10:16:44.847Z,17.23
2019-06-20T10:18:59.842Z,17.37
2019-06-20T10:21:31.594Z,17.15
2019-06-20T10:24:00.210Z,15.98
2019-06-20T10:26:28.983Z,15.72
2019-06-20T10:29:09.782Z,16.05
2019-06-20T10:31:38.553Z,16.23
2019-06-20T10:34:13.385Z,15.80
2019-06-20T10:36:42.076Z,15.93
2019-06-20T10:39:11.928Z,16.45
2019-06-20T10:41:40.788Z,16.62
2019-06-20T10:44:09.575Z,17.45
2019-06-20T10:46:38.251Z,17.87
2019-06-20T10:49:07.027Z,17.82
2019-06-20T10:51:42.374Z,17.48
2019-06-20T10:54:10.667Z,18.92
2019-06-20T10:56:40.464Z,17.73
2019-06-20T10:59:09.793Z,17.02
2019-06-20T11:01:39.873Z,16.00
2019-06-20T11:04:08.901Z,17.17
2019-06-20T11:06:39.887Z,17.15
2019-06-20T11:09:08.890Z,16.65
2019-06-20T11:11:47.119Z,16.52
2019-06-20T11:14:15.935Z,16.62
2019-06-20T11:16:45.205Z,16.17
2019-06-20T11:19:13.962Z,17.85
2019-06-20T11:21:43.212Z,18.70
2019-06-20T11:24:18.567Z,19.32
2019-06-20T11:26:47.978Z,21.17
2019-06-20T11:29:16.942Z,22.13
2019-06-20T11:31:47.804Z,20.55
2019-06-20T11:34:15.910Z,22.37
2019-06-20T11:36:45.139Z,22.30
2019-06-20T11:39:13.905Z,24.77
2019-06-20T11:41:43.672Z,23.15
2019-06-20T11:44:12.475Z,25.25
2019-06-20T11:46:42.598Z,29.52
2019-06-20T11:49:11.320Z,28.87
2019-06-20T11:51:40.128Z,23.85
2019-06-20T11:54:08.952Z,16.93
2019-06-20T11:56:37.573Z,13.70
2019-06-20T11:59:06.290Z,11.60
2019-06-20T12:01:35.065Z,16.45
2019-06-20T12:04:03.747Z,16.48
2019-06-20T12:06:32.458Z,15.20
2019-06-20T12:09:01.081Z,16.42
2019-06-20T12:11:29.826Z,17.35
2019-06-20T12:13:58.471Z,16.62
2019-06-20T12:16:27.183Z,16.05
2019-06-20T12:18:55.836Z,15.40
2019-06-20T12:21:24.513Z,13.72
2019-06-20T12:23:53.304Z,14.03
2019-06-20T12:26:21.965Z,15.13
2019-06-20T12:28:50.601Z,11.15
2019-06-20T12:31:22.377Z,10.43
2019-06-20T12:33:50.990Z,10.60
2019-06-20T12:36:19.704Z,13.18
2019-06-20T12:38:48.427Z,14.98
2019-06-20T12:41:17.116Z,13.93
2019-06-20T12:43:46.358Z,16.87
2019-06-20T12:46:16.121Z,17.23
2019-06-20T12:48:45.043Z,17.90
2019-06-20T12:51:13.965Z,20.15
2019-06-20T12:53:44.067Z,23.10
2019-06-20T12:56:12.930Z,23.57
2019-06-20T12:58:42.229Z,21.82
2019-06-20T13:01:11.088Z,22.37
2019-06-20T13:03:40.394Z,21.40
2019-06-20T13:06:09.499Z,23.07
2019-06-20T13:08:40.202Z,21.12
2019-06-20T13:11:08.746Z,19.75
2019-06-20T13:13:38.830Z,16.77
2019-06-20T13:16:08.079Z,16.77
2019-06-20T13:18:36.707Z,16.57
2019-06-20T13:21:05.504Z,15.08
2019-06-20T13:23:34.206Z,10.85
2019-06-20T13:26:02.869Z,9.20
2019-06-20T13:28:31.644Z,9.08
2019-06-20T13:31:00.286Z,9.20
2019-06-20T13:33:28.881Z,8.00
2019-06-20T13:35:57.645Z,7.45
2019-06-20T13:38:26.324Z,7.75
2019-06-20T13:40:54.933Z,8.98
2019-06-20T13:43:24.590Z,8.13
2019-06-20T13:45:54.227Z,8.78
2019-06-20T13:48:26.054Z,6.90
2019-06-20T13:50:54.642Z,7.42
2019-06-20T13:53:23.248Z,7.08
2019-06-20T13:55:51.928Z,8.80
2019-06-20T13:58:20.645Z,7.70
2019-06-20T14:00:50.975Z,8.05
2019-06-20T14:03:19.826Z,8.98
2019-06-20T14:05:49.864Z,8.03
2019-06-20T14:08:19.598Z,7.35
2019-06-20T14:10:49.746Z,7.12
2019-06-20T14:13:24.001Z,6.42
2019-06-20T14:15:53.710Z,6.90
2019-06-20T14:18:22.441Z,6.83
2019-06-20T14:20:51.129Z,6.47
2019-06-20T14:23:19.874Z,6.65
2019-06-20T14:25:48.807Z,6.55
2019-06-20T14:28:17.495Z,5.42
2019-06-20T14:30:48.335Z,6.17
2019-06-20T14:33:17.174Z,5.78
2019-06-20T14:35:47.374Z,6.62
2019-06-20T14:38:16.134Z,6.70
2019-06-20T14:40:45.334Z,7.45
2019-06-20T14:43:14.154Z,7.05
2019-06-20T14:45:43.816Z,6.55
2019-06-20T14:48:13.181Z,6.65
2019-06-20T14:50:43.828Z,7.75
2019-06-20T14:53:13.040Z,7.53
2019-06-20T14:55:41.644Z,8.08
2019-06-20T14:58:11.439Z,10.70
2019-06-20T15:00:40.121Z,8.33
2019-06-20T15:03:09.839Z,8.70
2019-06-20T15:05:38.512Z,10.63
2019-06-20T15:08:07.205Z,11.12
2019-06-20T15:10:35.841Z,10.72
2019-06-20T15:13:04.524Z,11.50
2019-06-20T15:15:33.237Z,12.43
2019-06-20T15:18:01.915Z,12.20
2019-06-20T15:20:30.634Z,12.25
2019-06-20T15:23:00.391Z,11.73
2019-06-20T15:25:29.357Z,12.93
2019-06-20T15:27:58.080Z,12.40
2019-06-20T15:30:26.710Z,11.00
2019-06-20T15:33:07.495Z,10.93
2019-06-20T15:35:27.094Z,10.58
2019-06-20T15:37:57.467Z,11.83
2019-06-20T15:40:26.344Z,10.32
2019-06-20T15:42:55.449Z,9.85
2019-06-20T15:45:25.311Z,13.48
2019-06-20T15:47:54.089Z,25.92
2019-06-20T15:50:22.772Z,19.48
2019-06-20T15:52:51.406Z,17.40
2019-06-20T15:55:20.457Z,9.15
2019-06-20T15:57:49.171Z,14.95
2019-06-20T16:00:18.825Z,8.60
2019-06-20T16:02:47.456Z,8.50
2019-06-20T16:05:16.310Z,14.05
2019-06-20T16:07:44.941Z,18.98
2019-06-20T16:10:14.101Z,7.62
2019-06-20T16:12:42.785Z,7.97
2019-06-20T16:15:13.831Z,7.75
2019-06-20T16:17:42.517Z,6.92
2019-06-20T16:20:11.380Z,8.15
2019-06-20T16:22:40.030Z,8.10
2019-06-20T16:25:08.811Z,8.33
2019-06-20T16:27:37.532Z,16.73
2019-06-20T16:30:07.952Z,9.05
2019-06-20T16:32:36.657Z,30.23
2019-06-20T16:35:07.436Z,10.30
2019-06-20T16:37:36.291Z,13.35
2019-06-20T16:40:09.083Z,17.80
2019-06-20T16:42:37.765Z,11.97
2019-06-20T16:45:08.503Z,10.23
2019-06-20T16:47:37.385Z,14.10
2019-06-20T16:50:11.481Z,10.70
2019-06-20T16:52:40.194Z,8.98
2019-06-20T16:55:09.256Z,26.27
2019-06-20T16:57:37.964Z,58.42
2019-06-20T17:00:08.545Z,26.97
2019-06-20T17:02:37.333Z,58.50
2019-06-20T17:05:07.323Z,45.78
2019-06-20T17:07:36.093Z,15.43
2019-06-20T17:10:07.914Z,15.83
2019-06-20T17:12:36.689Z,11.88
2019-06-20T17:15:06.673Z,18.82
2019-06-20T17:17:35.427Z,10.32
2019-06-20T17:20:06.494Z,7.50
2019-06-20T17:22:35.176Z,6.87
2019-06-20T17:25:19.483Z,7.70
2019-06-20T17:27:48.081Z,6.15
2019-06-20T17:30:19.053Z,6.90
2019-06-20T17:32:47.792Z,9.38
2019-06-20T17:35:17.244Z,7.28
2019-06-20T17:37:46.025Z,22.95
2019-06-20T17:40:16.578Z,8.68
2019-06-20T17:42:46.265Z,8.23
2019-06-20T17:45:15.733Z,7.45
2019-06-20T17:47:44.415Z,9.08
2019-06-20T17:50:13.584Z,6.92
2019-06-20T17:52:42.564Z,10.88
2019-06-20T17:55:11.817Z,7.72
2019-06-20T17:57:40.525Z,10.18
2019-06-20T18:00:15.688Z,5.53
2019-06-20T18:02:44.390Z,5.25
2019-06-20T18:05:15.762Z,5.42
2019-06-20T18:07:44.472Z,7.62
2019-06-20T18:10:13.648Z,8.40
2019-06-20T18:12:42.414Z,6.90
2019-06-20T18:15:11.522Z,18.80
2019-06-20T18:17:40.240Z,32.42
2019-06-20T18:20:09.499Z,29.75
2019-06-20T18:22:39.153Z,30.02
2019-06-20T18:25:08.534Z,41.50
2019-06-20T18:27:37.208Z,25.97
2019-06-20T18:30:07.774Z,5.35
2019-06-20T18:32:36.542Z,8.30
2019-06-20T18:35:08.873Z,5.03
2019-06-20T18:37:37.550Z,5.10
2019-06-20T18:40:10.768Z,4.40
2019-06-20T18:42:39.813Z,18.32
2019-06-20T18:45:11.323Z,24.32
2019-06-20T18:47:40.002Z,7.12
2019-06-20T18:50:10.372Z,5.62
2019-06-20T18:52:51.536Z,5.47
2019-06-20T18:55:11.847Z,6.17
2019-06-20T18:57:40.591Z,4.90
2019-06-20T19:00:11.505Z,4.35
2019-06-20T19:02:40.248Z,4.33
2019-06-20T19:05:11.158Z,7.72
2019-06-20T19:07:39.896Z,3.95
2019-06-20T19:10:10.624Z,4.55
2019-06-20T19:12:39.481Z,5.37
2019-06-20T19:15:10.155Z,4.45
2019-06-20T19:17:38.898Z,4.50
2019-06-20T19:20:09.661Z,4.85
2019-06-20T19:22:38.282Z,4.72
2019-06-20T19:25:07.973Z,4.08
2019-06-20T19:27:45.979Z,5.00
2019-06-20T19:30:08.619Z,4.95
2019-06-20T19:32:37.328Z,12.47
2019-06-20T19:35:10.231Z,5.00
2019-06-20T19:37:38.235Z,4.20
2019-06-20T19:40:09.708Z,4.25
2019-06-20T19:42:38.547Z,4.58
2019-06-20T19:45:11.861Z,5.40
2019-06-20T19:47:41.101Z,4.83
2019-06-20T19:50:10.385Z,5.30
2019-06-20T19:52:39.703Z,4.20
2019-06-20T19:55:08.789Z,4.17
2019-06-20T19:57:37.462Z,4.35
2019-06-20T20:00:09.572Z,4.95
2019-06-20T20:02:38.279Z,3.90
2019-06-20T20:05:18.526Z,4.37
2019-06-20T20:07:44.933Z,3.65
2019-06-20T20:10:15.401Z,4.05
2019-06-20T20:12:44.013Z,4.03
2019-06-20T20:15:27.853Z,3.85
2019-06-20T20:17:56.461Z,4.67
2019-06-20T20:20:25.138Z,5.30
2019-06-20T20:22:53.841Z,7.90
2019-06-20T20:25:22.614Z,6.25
2019-06-20T20:27:51.274Z,5.10
2019-06-20T20:30:20.225Z,5.10
2019-06-20T20:32:48.949Z,5.10
2019-06-20T20:35:31.544Z,5.28
2019-06-20T20:37:48.051Z,5.22
2019-06-20T20:40:18.535Z,4.78
2019-06-20T20:42:47.140Z,4.53
2019-06-20T20:45:16.983Z,5.37
2019-06-20T20:47:45.677Z,4.78
2019-06-20T20:50:14.766Z,5.22
2019-06-20T20:52:43.423Z,6.05
2019-06-20T20:55:12.564Z,5.90
2019-06-20T20:57:53.338Z,6.25
2019-06-20T21:00:24.591Z,6.05
2019-06-20T21:02:54.053Z,6.37
2019-06-20T21:05:22.830Z,6.65
2019-06-20T21:07:51.601Z,6.08
2019-06-20T21:10:20.733Z,6.97
2019-06-20T21:12:49.430Z,7.08
2019-06-20T21:15:18.311Z,6.65
2019-06-20T21:17:46.986Z,7.10
2019-06-20T21:20:16.031Z,7.65
2019-06-20T21:22:44.826Z,7.42
2019-06-20T21:25:13.979Z,6.87
2019-06-20T21:27:42.709Z,7.12
2019-06-20T21:30:11.991Z,7.00
2019-06-20T21:32:41.753Z,7.42
2019-06-20T21:35:11.810Z,8.05
2019-06-20T21:37:40.510Z,7.58
2019-06-20T21:40:09.998Z,8.18
2019-06-20T21:42:38.636Z,7.97
2019-06-20T21:45:08.578Z,7.97
2019-06-20T21:47:37.338Z,7.17
2019-06-20T21:50:09.930Z,7.62
2019-06-20T21:52:39.019Z,7.90
2019-06-20T21:55:07.986Z,8.10
2019-06-20T21:57:42.634Z,8.08
2019-06-20T22:00:27.984Z,7.87
2019-06-20T22:02:56.861Z,8.23
2019-06-20T22:05:26.478Z,7.42
2019-06-20T22:07:59.738Z,8.13
2019-06-20T22:10:29.415Z,9.78
2019-06-20T22:12:58.217Z,10.10
2019-06-20T22:15:26.970Z,11.22
2019-06-20T22:17:55.710Z,11.30
2019-06-20T22:20:24.866Z,10.65
2019-06-20T22:22:53.615Z,11.18
2019-06-20T22:25:22.890Z,9.68
2019-06-20T22:28:36.249Z,9.35
2019-06-20T22:31:36.120Z,8.65
2019-06-20T22:34:05.082Z,7.33
2019-06-20T22:36:40.098Z,7.30
2019-06-20T22:39:05.896Z,7.90
2019-06-20T22:41:34.590Z,8.35
2019-06-20T22:44:03.381Z,6.65
2019-06-20T22:46:31.985Z,7.30
2019-06-20T22:49:00.714Z,7.17
2019-06-20T22:51:29.522Z,6.35
2019-06-20T22:53:58.277Z,7.05
2019-06-20T22:56:26.913Z,7.03
2019-06-20T22:58:55.512Z,7.45
2019-06-20T23:01:24.374Z,7.00
2019-06-20T23:03:53.130Z,7.80
2019-06-20T23:06:21.805Z,7.35
2019-06-20T23:08:50.621Z,7.58
2019-06-20T23:11:19.297Z,7.83
2019-06-20T23:13:48.014Z,7.85
2019-06-20T23:16:16.622Z,7.97
2019-06-20T23:18:45.274Z,8.35
2019-06-20T23:21:13.884Z,8.20
2019-06-20T23:23:42.593Z,8.73
2019-06-20T23:26:12.264Z,8.80
2019-06-20T23:28:40.900Z,7.80
2019-06-20T23:31:09.537Z,8.58
2019-06-20T23:33:38.251Z,9.40
2019-06-20T23:36:06.994Z,9.13
2019-06-20T23:38:35.675Z,9.35
2019-06-20T23:41:04.432Z,9.43
2019-06-20T23:43:33.038Z,9.18
2019-06-20T23:46:01.685Z,10.05
2019-06-20T23:48:30.353Z,9.20
2019-06-20T23:50:59.000Z,10.05
2019-06-20T23:53:28.351Z,9.73
2019-06-20T23:55:57.112Z,9.73
2019-06-20T23:58:25.733Z,9.35
